createdAt,value
2017-09-19T00:00:23.645Z,8.53
2017-09-19T00:02:51.526Z,6.30
2017-09-19T00:05:19.076Z,6.70
2017-09-19T00:07:47.335Z,7.53
2017-09-19T00:10:14.858Z,7.60
2017-09-19T00:12:42.412Z,7.33
2017-09-19T00:15:10.657Z,7.10
2017-09-19T00:17:38.141Z,6.83
2017-09-19T00:20:06.074Z,7.30
2017-09-19T00:22:33.624Z,6.60
2017-09-19T00:25:01.120Z,6.30
2017-09-19T00:27:29.335Z,6.57
2017-09-19T00:29:56.914Z,7.27
2017-09-19T00:32:24.412Z,6.97
2017-09-19T00:34:52.137Z,7.90
2017-09-19T00:37:19.664Z,6.60
2017-09-19T00:39:47.191Z,6.90
2017-09-19T00:42:15.484Z,6.03
2017-09-19T00:44:43.750Z,6.20
2017-09-19T00:47:11.300Z,6.57
2017-09-19T00:49:38.789Z,7.10
2017-09-19T00:52:06.319Z,7.03
2017-09-19T00:54:33.892Z,7.07
2017-09-19T00:57:01.384Z,7.37
2017-09-19T00:59:28.872Z,6.87
2017-09-19T01:01:56.394Z,7.77
2017-09-19T01:04:23.903Z,8.40
2017-09-19T01:06:51.422Z,6.20
2017-09-19T01:09:18.935Z,6.80
2017-09-19T01:11:47.241Z,7.00
2017-09-19T01:14:14.785Z,7.33
2017-09-19T01:16:42.288Z,6.90
2017-09-19T01:19:10.658Z,6.27
2017-09-19T01:21:38.180Z,7.17
2017-09-19T01:24:06.463Z,6.33
2017-09-19T01:26:34.039Z,8.10
2017-09-19T01:29:01.533Z,6.70
2017-09-19T01:31:29.842Z,6.90
2017-09-19T01:33:58.106Z,7.30
2017-09-19T01:36:25.644Z,6.03
2017-09-19T01:38:53.147Z,8.87
2017-09-19T01:41:20.639Z,6.67
2017-09-19T01:43:48.191Z,8.73
2017-09-19T01:46:15.696Z,7.37
2017-09-19T01:48:43.228Z,8.23
2017-09-19T01:51:10.716Z,7.93
2017-09-19T01:53:38.241Z,6.60
2017-09-19T01:56:06.558Z,8.10
2017-09-19T01:58:34.861Z,7.63
2017-09-19T02:01:02.534Z,6.97
2017-09-19T02:03:30.028Z,7.17
2017-09-19T02:05:57.715Z,8.50
2017-09-19T02:08:25.270Z,5.93
2017-09-19T02:10:52.803Z,6.50
2017-09-19T02:13:20.293Z,6.47
2017-09-19T02:15:47.830Z,7.27
2017-09-19T02:18:15.329Z,6.63
2017-09-19T02:20:42.830Z,6.50
2017-09-19T02:23:10.360Z,7.40
2017-09-19T02:25:37.856Z,6.27
2017-09-19T02:28:05.743Z,6.60
2017-09-19T02:30:33.931Z,6.17
2017-09-19T02:33:01.434Z,5.70
2017-09-19T02:35:28.984Z,7.43
2017-09-19T02:37:56.719Z,6.43
2017-09-19T02:40:24.235Z,8.10
2017-09-19T02:42:51.768Z,6.83
2017-09-19T02:45:19.258Z,6.70
2017-09-19T02:47:46.864Z,5.97
2017-09-19T02:50:15.154Z,6.80
2017-09-19T02:52:42.642Z,6.30
2017-09-19T02:55:10.144Z,6.13
2017-09-19T02:57:37.659Z,6.53
2017-09-19T03:00:05.538Z,7.53
2017-09-19T03:02:33.111Z,6.50
2017-09-19T03:05:01.004Z,6.97
2017-09-19T03:07:28.552Z,5.80
2017-09-19T03:09:56.840Z,7.27
2017-09-19T03:12:24.352Z,6.57
2017-09-19T03:14:52.260Z,6.67
2017-09-19T03:17:19.777Z,6.43
2017-09-19T03:19:47.337Z,6.40
2017-09-19T03:22:14.860Z,6.50
2017-09-19T03:24:42.459Z,6.70
2017-09-19T03:27:10.001Z,6.23
2017-09-19T03:29:37.513Z,7.30
2017-09-19T03:32:05.408Z,8.40
2017-09-19T03:34:32.920Z,7.83
2017-09-19T03:37:01.191Z,6.13
2017-09-19T03:39:28.705Z,7.70
2017-09-19T03:41:56.203Z,7.20
2017-09-19T03:44:23.733Z,7.90
2017-09-19T03:46:51.222Z,8.53
2017-09-19T03:49:18.704Z,8.20
2017-09-19T03:51:46.242Z,7.73
2017-09-19T03:54:13.951Z,8.20
2017-09-19T03:56:41.472Z,7.87
2017-09-19T03:59:09.978Z,8.73
2017-09-19T04:01:37.509Z,7.10
2017-09-19T04:04:05.428Z,7.23
2017-09-19T04:06:32.935Z,7.93
2017-09-19T04:09:00.868Z,7.10
2017-09-19T04:11:28.379Z,7.30
2017-09-19T04:13:56.679Z,7.50
2017-09-19T04:16:24.216Z,7.00
2017-09-19T04:18:51.754Z,7.30
2017-09-19T04:21:19.302Z,7.30
2017-09-19T04:23:46.812Z,7.70
2017-09-19T04:26:14.484Z,7.87
2017-09-19T04:28:42.141Z,7.90
2017-09-19T04:31:10.403Z,7.57
2017-09-19T04:33:37.931Z,7.60
2017-09-19T04:36:06.197Z,8.13
2017-09-19T04:38:33.718Z,7.50
2017-09-19T04:41:01.604Z,8.50
2017-09-19T04:43:29.893Z,7.70
2017-09-19T04:45:57.827Z,7.70
2017-09-19T04:48:25.336Z,6.80
2017-09-19T04:50:53.587Z,9.30
2017-09-19T04:53:21.128Z,8.23
2017-09-19T04:55:49.451Z,11.57
2017-09-19T04:58:16.944Z,8.87
2017-09-19T05:00:44.863Z,9.73
2017-09-19T05:03:12.400Z,8.77
2017-09-19T05:05:39.890Z,9.27
2017-09-19T05:08:07.387Z,8.00
2017-09-19T05:10:34.908Z,7.30
2017-09-19T05:13:03.163Z,7.47
2017-09-19T05:15:30.679Z,8.90
2017-09-19T05:17:58.304Z,10.57
2017-09-19T05:20:26.560Z,11.33
2017-09-19T05:22:54.080Z,10.87
2017-09-19T05:25:22.312Z,9.83
2017-09-19T05:27:49.863Z,9.27
2017-09-19T05:30:17.429Z,9.60
2017-09-19T05:32:44.972Z,8.90
2017-09-19T05:35:12.468Z,8.30
2017-09-19T05:37:39.958Z,8.37
2017-09-19T05:40:07.538Z,9.53
2017-09-19T05:42:35.457Z,7.40
2017-09-19T05:45:03.007Z,8.87
2017-09-19T05:47:30.500Z,7.63
2017-09-19T05:49:58.031Z,7.13
2017-09-19T05:52:25.516Z,6.07
2017-09-19T05:54:53.066Z,6.20
2017-09-19T05:57:20.586Z,7.47
2017-09-19T05:59:48.858Z,5.90
2017-09-19T06:02:17.157Z,5.70
2017-09-19T06:04:44.643Z,5.90
2017-09-19T06:07:12.378Z,5.70
2017-09-19T06:09:39.914Z,6.30
2017-09-19T06:12:07.422Z,5.70
2017-09-19T06:14:35.179Z,6.47
2017-09-19T06:17:02.703Z,5.97
2017-09-19T06:19:30.193Z,4.93
2017-09-19T06:21:57.733Z,4.83
2017-09-19T06:24:26.005Z,5.93
2017-09-19T06:26:54.286Z,6.00
2017-09-19T06:29:21.782Z,5.97
2017-09-19T06:31:50.470Z,6.00
2017-09-19T06:34:18.044Z,6.23
2017-09-19T06:36:45.581Z,5.90
2017-09-19T06:39:13.132Z,5.60
2017-09-19T06:41:41.404Z,5.10
2017-09-19T06:44:08.912Z,6.40
2017-09-19T06:46:36.460Z,6.60
2017-09-19T06:49:03.962Z,6.10
2017-09-19T06:51:31.456Z,5.47
2017-09-19T06:53:58.994Z,5.60
2017-09-19T06:56:26.538Z,7.70
2017-09-19T06:58:54.044Z,5.00
2017-09-19T07:01:21.538Z,4.90
2017-09-19T07:03:49.312Z,5.40
2017-09-19T07:06:16.813Z,5.10
2017-09-19T07:08:45.084Z,5.90
2017-09-19T07:11:13.049Z,6.93
2017-09-19T07:13:40.530Z,9.00
2017-09-19T07:16:08.029Z,6.67
2017-09-19T07:18:35.586Z,6.57
2017-09-19T07:21:03.073Z,7.13
2017-09-19T07:23:30.603Z,5.97
2017-09-19T07:25:58.234Z,6.30
2017-09-19T07:28:26.000Z,7.00
2017-09-19T07:30:53.496Z,6.70
2017-09-19T07:33:21.055Z,7.30
2017-09-19T07:35:48.561Z,6.17
2017-09-19T07:38:16.825Z,6.20
2017-09-19T07:40:44.373Z,5.27
2017-09-19T07:43:13.153Z,5.03
2017-09-19T07:45:40.697Z,5.10
2017-09-19T07:48:08.233Z,5.47
2017-09-19T07:50:35.725Z,4.80
2017-09-19T07:53:03.212Z,4.93
2017-09-19T07:55:30.746Z,4.47
2017-09-19T07:57:58.232Z,5.30
2017-09-19T08:00:26.529Z,5.47
2017-09-19T08:02:54.020Z,5.10
2017-09-19T08:05:21.565Z,4.50
2017-09-19T08:07:49.226Z,4.07
2017-09-19T08:10:16.723Z,6.00
2017-09-19T08:12:45.414Z,4.40
2017-09-19T08:15:12.932Z,5.03
2017-09-19T08:17:40.416Z,5.47
2017-09-19T08:20:08.384Z,6.23
2017-09-19T08:22:35.868Z,4.93
2017-09-19T08:25:03.444Z,5.30
2017-09-19T08:27:31.851Z,4.00
2017-09-19T08:29:59.393Z,5.00
2017-09-19T08:32:26.971Z,4.77
2017-09-19T08:34:54.481Z,4.47
2017-09-19T08:37:21.972Z,4.77
2017-09-19T08:39:49.556Z,4.27
2017-09-19T08:42:17.208Z,5.00
2017-09-19T08:44:44.741Z,4.47
2017-09-19T08:47:12.243Z,4.53
2017-09-19T08:49:39.740Z,4.87
2017-09-19T08:52:07.281Z,4.30
2017-09-19T08:54:34.798Z,4.10
2017-09-19T08:57:02.288Z,5.10
2017-09-19T08:59:29.835Z,4.30
2017-09-19T09:01:57.331Z,4.30
2017-09-19T09:04:24.875Z,3.30
2017-09-19T09:06:52.437Z,3.40
2017-09-19T09:09:19.941Z,5.13
2017-09-19T09:11:47.469Z,3.27
2017-09-19T09:14:15.020Z,4.10
2017-09-19T09:16:42.565Z,4.80
2017-09-19T09:19:10.052Z,3.60
2017-09-19T09:21:37.962Z,4.23
2017-09-19T09:24:05.492Z,6.07
2017-09-19T09:26:33.802Z,4.17
2017-09-19T09:29:01.316Z,3.90
2017-09-19T09:31:29.240Z,3.73
2017-09-19T09:33:57.197Z,3.80
2017-09-19T09:36:24.695Z,3.33
2017-09-19T09:38:52.713Z,3.70
2017-09-19T09:41:20.252Z,3.90
2017-09-19T09:43:47.771Z,5.07
2017-09-19T09:46:15.292Z,3.40
2017-09-19T09:48:42.831Z,2.67
2017-09-19T09:51:10.748Z,2.97
2017-09-19T09:53:38.272Z,3.23
2017-09-19T09:56:06.161Z,2.90
2017-09-19T09:58:33.689Z,2.13
2017-09-19T10:01:01.216Z,2.30
2017-09-19T10:03:28.752Z,2.57
2017-09-19T10:05:56.280Z,2.40
2017-09-19T10:08:23.773Z,3.53
2017-09-19T10:10:51.304Z,2.70
2017-09-19T10:13:18.829Z,4.00
2017-09-19T10:15:46.371Z,2.63
2017-09-19T10:18:14.636Z,3.90
2017-09-19T10:20:42.533Z,2.40
2017-09-19T10:23:10.821Z,3.27
2017-09-19T10:25:38.344Z,2.47
2017-09-19T10:28:06.616Z,3.30
2017-09-19T10:30:34.150Z,3.87
2017-09-19T10:33:01.650Z,3.33
2017-09-19T10:35:29.182Z,3.13
2017-09-19T10:37:56.775Z,4.30
2017-09-19T10:40:24.337Z,4.60
2017-09-19T10:42:51.880Z,2.63
2017-09-19T10:45:19.384Z,3.13
2017-09-19T10:47:47.697Z,3.10
2017-09-19T10:50:15.315Z,4.70
2017-09-19T10:52:42.852Z,4.00
2017-09-19T10:55:11.114Z,2.90
2017-09-19T10:57:38.612Z,2.40
2017-09-19T11:00:06.166Z,3.23
2017-09-19T11:02:33.704Z,3.03
2017-09-19T11:05:01.211Z,2.67
2017-09-19T11:07:28.707Z,3.43
2017-09-19T11:09:56.293Z,4.30
2017-09-19T11:12:23.796Z,3.77
2017-09-19T11:14:51.308Z,2.73
2017-09-19T11:17:18.982Z,2.67
2017-09-19T11:19:46.510Z,2.30
2017-09-19T11:22:14.196Z,4.73
2017-09-19T11:24:41.769Z,2.50
2017-09-19T11:27:09.276Z,1.80
2017-09-19T11:29:36.764Z,2.23
2017-09-19T11:32:04.349Z,3.00
2017-09-19T11:34:31.862Z,2.30
2017-09-19T11:37:00.175Z,1.73
2017-09-19T11:39:27.692Z,3.20
2017-09-19T11:41:55.996Z,2.47
2017-09-19T11:44:23.499Z,4.70
2017-09-19T11:46:51.032Z,3.20
2017-09-19T11:49:18.533Z,3.63
2017-09-19T11:51:46.463Z,2.50
2017-09-19T11:54:14.018Z,3.07
2017-09-19T11:56:41.517Z,2.03
2017-09-19T11:59:09.011Z,3.30
2017-09-19T12:01:36.563Z,3.07
2017-09-19T12:04:04.481Z,2.50
2017-09-19T12:06:31.980Z,3.50
2017-09-19T12:08:59.509Z,3.80
2017-09-19T12:11:26.998Z,2.77
2017-09-19T12:13:55.332Z,3.10
2017-09-19T12:16:22.868Z,3.10
2017-09-19T12:18:51.146Z,3.43
2017-09-19T12:21:18.679Z,4.10
2017-09-19T12:23:46.173Z,6.13
2017-09-19T12:26:13.696Z,3.57
2017-09-19T12:28:41.986Z,3.80
2017-09-19T12:31:09.932Z,3.40
2017-09-19T12:33:38.197Z,4.20
2017-09-19T12:36:06.468Z,3.90
2017-09-19T12:38:34.017Z,3.70
2017-09-19T12:41:01.911Z,5.13
2017-09-19T12:43:30.223Z,4.50
2017-09-19T12:45:57.718Z,4.00
2017-09-19T12:48:25.289Z,3.73
2017-09-19T12:50:52.830Z,4.10
2017-09-19T12:53:20.364Z,4.77
2017-09-19T12:55:47.858Z,4.10
2017-09-19T12:58:15.413Z,4.00
2017-09-19T13:00:42.901Z,4.40
2017-09-19T13:03:10.793Z,4.43
2017-09-19T13:05:38.318Z,3.20
2017-09-19T13:08:06.616Z,3.40
2017-09-19T13:10:34.504Z,3.70
2017-09-19T13:13:03.481Z,3.70
2017-09-19T13:15:30.984Z,2.97
2017-09-19T13:17:59.428Z,2.90
2017-09-19T13:20:27.723Z,5.00
2017-09-19T13:22:55.252Z,2.73
2017-09-19T13:25:22.776Z,3.40
2017-09-19T13:27:50.269Z,3.27
2017-09-19T13:30:17.803Z,4.20
2017-09-19T13:32:57.941Z,3.73
2017-09-19T13:35:25.445Z,4.03
2017-09-19T13:37:52.933Z,3.80
2017-09-19T13:40:20.470Z,6.13
2017-09-19T13:42:48.014Z,4.83
2017-09-19T13:45:15.552Z,3.53
2017-09-19T13:47:43.497Z,4.33
2017-09-19T13:50:11.384Z,5.87
2017-09-19T13:52:38.984Z,4.80
2017-09-19T13:55:06.880Z,3.60
2017-09-19T13:57:35.173Z,4.63
2017-09-19T14:00:03.466Z,2.87
2017-09-19T14:02:31.764Z,3.90
2017-09-19T14:04:59.544Z,4.03
2017-09-19T14:07:27.045Z,4.87
2017-09-19T14:09:54.575Z,2.83
2017-09-19T14:12:22.988Z,3.60
2017-09-19T14:14:50.475Z,3.67
2017-09-19T14:17:17.965Z,3.90
2017-09-19T14:19:45.495Z,2.67
2017-09-19T14:22:13.002Z,4.07
2017-09-19T14:24:40.501Z,2.97
2017-09-19T14:27:08.813Z,4.10
2017-09-19T14:29:36.337Z,4.23
2017-09-19T14:32:04.640Z,4.03
2017-09-19T14:34:32.188Z,4.13
2017-09-19T14:36:59.716Z,5.13
2017-09-19T14:39:27.212Z,3.60
2017-09-19T14:41:54.729Z,4.73
2017-09-19T14:44:22.992Z,4.77
2017-09-19T14:46:50.940Z,5.00
2017-09-19T14:49:18.446Z,4.70
2017-09-19T14:51:46.341Z,5.13
2017-09-19T14:54:14.475Z,4.87
2017-09-19T14:56:42.039Z,5.77
2017-09-19T14:59:10.297Z,5.70
2017-09-19T15:01:37.848Z,5.17
2017-09-19T15:04:05.683Z,5.73
2017-09-19T15:06:33.227Z,5.37
2017-09-19T15:09:01.148Z,4.50
2017-09-19T15:11:28.653Z,5.90
2017-09-19T15:13:56.417Z,5.57
2017-09-19T15:16:23.940Z,6.00
2017-09-19T15:18:51.486Z,3.93
2017-09-19T15:21:19.007Z,5.13
2017-09-19T15:23:46.501Z,6.30
2017-09-19T15:26:14.037Z,5.97
2017-09-19T15:28:41.533Z,5.33
2017-09-19T15:31:09.072Z,4.83
2017-09-19T15:33:36.621Z,7.87
2017-09-19T15:36:04.505Z,4.80
2017-09-19T15:38:32.044Z,4.77
2017-09-19T15:40:59.548Z,5.60
2017-09-19T15:43:27.821Z,5.10
2017-09-19T15:45:55.372Z,4.53
2017-09-19T15:48:22.856Z,4.73
2017-09-19T15:50:50.356Z,4.20
2017-09-19T15:53:17.909Z,5.90
2017-09-19T15:55:45.405Z,5.33
2017-09-19T15:58:12.896Z,6.70
2017-09-19T16:00:40.480Z,5.07
2017-09-19T16:03:07.993Z,6.00
2017-09-19T16:05:36.269Z,4.50
2017-09-19T16:08:03.797Z,5.47
2017-09-19T16:10:31.318Z,5.27
2017-09-19T16:12:59.103Z,6.40
2017-09-19T16:15:26.658Z,6.70
2017-09-19T16:17:54.212Z,6.23
2017-09-19T16:20:21.786Z,7.57
2017-09-19T16:22:49.284Z,5.80
2017-09-19T16:25:16.808Z,5.53
2017-09-19T16:27:45.116Z,5.63
2017-09-19T16:30:12.629Z,5.73
2017-09-19T16:32:40.160Z,5.50
2017-09-19T16:35:08.072Z,5.20
2017-09-19T16:37:35.610Z,5.53
2017-09-19T16:40:03.120Z,6.30
2017-09-19T16:42:31.443Z,8.57
2017-09-19T16:44:58.929Z,6.00
2017-09-19T16:47:26.488Z,6.80
2017-09-19T16:49:54.093Z,6.53
2017-09-19T16:52:22.348Z,7.27
2017-09-19T16:54:49.884Z,6.97
2017-09-19T16:57:17.420Z,6.63
2017-09-19T16:59:44.945Z,5.73
2017-09-19T17:02:12.518Z,6.23
2017-09-19T17:04:40.025Z,6.43
2017-09-19T17:07:07.654Z,6.47
2017-09-19T17:09:35.202Z,7.47
2017-09-19T17:12:02.713Z,7.70
2017-09-19T17:14:30.638Z,6.33
2017-09-19T17:16:58.129Z,7.10
2017-09-19T17:19:25.704Z,7.97
2017-09-19T17:21:53.223Z,8.93
2017-09-19T17:24:20.770Z,8.67
2017-09-19T17:26:48.305Z,8.07
2017-09-19T17:29:16.252Z,8.90
2017-09-19T17:31:43.791Z,9.13
2017-09-19T17:34:11.323Z,8.73
2017-09-19T17:36:38.843Z,11.20
2017-09-19T17:39:06.400Z,8.80
2017-09-19T17:41:34.672Z,9.37
2017-09-19T17:44:02.940Z,9.47
2017-09-19T17:46:30.483Z,10.10
2017-09-19T17:48:58.024Z,9.83
2017-09-19T17:51:25.593Z,9.83
2017-09-19T17:53:53.090Z,10.70
2017-09-19T17:56:21.363Z,11.73
2017-09-19T17:58:49.305Z,9.93
2017-09-19T18:01:16.805Z,11.13
2017-09-19T18:03:44.338Z,12.63
2017-09-19T18:06:12.146Z,11.33
2017-09-19T18:08:39.669Z,12.80
2017-09-19T18:11:07.990Z,12.30
2017-09-19T18:13:35.490Z,13.03
2017-09-19T18:16:03.000Z,12.60
2017-09-19T18:18:30.567Z,11.90
2017-09-19T18:20:58.464Z,11.90
2017-09-19T18:23:25.987Z,12.90
2017-09-19T18:25:53.528Z,12.00
2017-09-19T18:28:21.064Z,13.93
2017-09-19T18:30:49.481Z,13.67
2017-09-19T18:33:17.048Z,14.83
2017-09-19T18:35:44.564Z,13.83
2017-09-19T18:38:13.085Z,14.30
2017-09-19T18:40:41.154Z,13.70
2017-09-19T18:43:08.694Z,12.83
2017-09-19T18:45:36.595Z,11.53
2017-09-19T18:48:04.169Z,12.67
2017-09-19T18:50:32.058Z,11.90
2017-09-19T18:52:59.565Z,10.37
2017-09-19T18:55:27.104Z,10.53
2017-09-19T18:57:55.413Z,10.40
2017-09-19T19:00:22.999Z,11.23
2017-09-19T19:02:50.524Z,11.07
2017-09-19T19:05:18.291Z,10.10
2017-09-19T19:07:45.832Z,9.83
2017-09-19T19:10:13.417Z,15.43
2017-09-19T19:12:40.972Z,12.10
2017-09-19T19:15:08.470Z,10.23
2017-09-19T19:17:35.992Z,10.93
2017-09-19T19:20:03.544Z,12.77
2017-09-19T19:22:31.073Z,15.00
2017-09-19T19:24:59.345Z,14.70
2017-09-19T19:27:26.880Z,12.30
2017-09-19T19:29:54.658Z,11.53
2017-09-19T19:32:23.228Z,12.60
2017-09-19T19:34:50.754Z,11.03
2017-09-19T19:37:18.684Z,11.03
2017-09-19T19:39:46.982Z,12.93
2017-09-19T19:42:14.481Z,12.00
2017-09-19T19:44:42.037Z,12.50
2017-09-19T19:47:09.540Z,12.90
2017-09-19T19:49:37.048Z,12.43
2017-09-19T19:52:04.593Z,12.80
2017-09-19T19:54:32.903Z,12.30
2017-09-19T19:57:00.411Z,11.90
2017-09-19T19:59:27.949Z,11.90
2017-09-19T20:01:55.465Z,10.37
2017-09-19T20:04:23.001Z,12.77
2017-09-19T20:06:50.945Z,12.20
2017-09-19T20:09:18.457Z,13.30
2017-09-19T20:11:46.004Z,11.83
2017-09-19T20:14:13.502Z,12.27
2017-09-19T20:16:41.860Z,12.37
2017-09-19T20:19:09.368Z,13.60
2017-09-19T20:21:36.948Z,12.00
2017-09-19T20:24:04.613Z,15.23
2017-09-19T20:26:32.120Z,15.00
2017-09-19T20:28:59.726Z,17.30
2017-09-19T20:31:27.236Z,12.50
2017-09-19T20:33:54.809Z,13.47
2017-09-19T20:36:22.331Z,14.07
2017-09-19T20:38:49.841Z,13.63
2017-09-19T20:41:17.777Z,13.33
2017-09-19T20:43:46.059Z,14.37
2017-09-19T20:46:14.363Z,12.70
2017-09-19T20:48:41.899Z,13.90
2017-09-19T20:51:09.402Z,12.40
2017-09-19T20:53:36.957Z,15.77
2017-09-19T20:56:04.490Z,13.77
2017-09-19T20:58:32.048Z,15.47
2017-09-19T21:00:59.715Z,13.87
2017-09-19T21:03:32.916Z,13.97
2017-09-19T21:06:05.996Z,14.63
2017-09-19T21:08:39.502Z,14.10
2017-09-19T21:11:12.676Z,14.77
2017-09-19T21:13:45.931Z,16.03
2017-09-19T21:16:18.984Z,15.50
2017-09-19T21:18:52.101Z,14.27
2017-09-19T21:21:19.652Z,14.63
2017-09-19T21:23:47.282Z,13.23
2017-09-19T21:26:14.828Z,13.47
2017-09-19T21:28:42.336Z,14.77
2017-09-19T21:31:10.047Z,13.70
2017-09-19T21:33:37.588Z,13.87
2017-09-19T21:36:05.112Z,13.53
2017-09-19T21:38:32.644Z,14.73
2017-09-19T21:41:00.140Z,14.73
2017-09-19T21:43:27.688Z,15.20
2017-09-19T21:45:55.192Z,15.20
2017-09-19T21:48:22.736Z,14.73
2017-09-19T21:50:50.769Z,15.47
2017-09-19T21:53:18.277Z,14.40
2017-09-19T21:55:46.605Z,13.30
2017-09-19T21:58:14.102Z,14.90
2017-09-19T22:00:42.376Z,15.33
2017-09-19T22:03:10.671Z,14.67
2017-09-19T22:05:38.931Z,17.10
2017-09-19T22:08:07.180Z,17.47
2017-09-19T22:10:34.676Z,14.80
2017-09-19T22:13:02.177Z,15.47
2017-09-19T22:15:29.772Z,16.13
2017-09-19T22:17:57.686Z,17.57
2017-09-19T22:20:25.161Z,18.80
2017-09-19T22:22:52.656Z,16.50
2017-09-19T22:25:20.128Z,19.13
2017-09-19T22:27:48.395Z,18.07
2017-09-19T22:30:15.918Z,17.73
2017-09-19T22:32:43.408Z,16.07
2017-09-19T22:35:11.656Z,16.27
2017-09-19T22:40:22.961Z,15.33
2017-09-19T22:42:50.436Z,15.90
2017-09-19T22:45:17.908Z,16.87
2017-09-19T22:47:46.320Z,15.40
2017-09-19T22:50:14.199Z,16.30
2017-09-19T22:52:41.708Z,16.90
2017-09-19T22:55:09.269Z,16.80
2017-09-19T22:57:36.776Z,17.43
2017-09-19T23:00:04.257Z,15.30
2017-09-19T23:02:31.784Z,14.10
2017-09-19T23:04:59.284Z,15.00
2017-09-19T23:07:26.791Z,16.40
2017-09-19T23:09:54.309Z,14.83
2017-09-19T23:12:21.832Z,16.50
2017-09-19T23:14:49.351Z,16.13
2017-09-19T23:17:16.827Z,17.80
2017-09-19T23:19:44.315Z,15.77
2017-09-19T23:22:12.590Z,16.33
2017-09-19T23:24:40.073Z,16.77
2017-09-19T23:27:08.327Z,15.63
2017-09-19T23:29:36.539Z,14.87
2017-09-19T23:32:04.827Z,15.80
2017-09-19T23:34:32.308Z,14.90
2017-09-19T23:37:00.200Z,16.33
2017-09-19T23:39:27.697Z,14.20
2017-09-19T23:41:55.206Z,15.97
2017-09-19T23:44:22.683Z,15.87
2017-09-19T23:46:50.156Z,16.30
2017-09-19T23:49:20.205Z,15.30
2017-09-19T23:51:47.707Z,14.87
2017-09-19T23:54:15.244Z,15.40
2017-09-19T23:56:42.769Z,13.87
2017-09-19T23:59:11.084Z,14.20
